createdAt,value
2023-04-07T00:01:19.850Z,5.59
2023-04-07T00:03:48.010Z,5.52
2023-04-07T00:06:18.801Z,5.56
2023-04-07T00:08:45.763Z,5.56
2023-04-07T00:11:12.687Z,5.52
2023-04-07T00:13:39.801Z,5.55
2023-04-07T00:16:06.733Z,5.51
2023-04-07T00:18:33.677Z,5.47
2023-04-07T00:21:00.683Z,5.47
2023-04-07T00:23:27.651Z,5.43
2023-04-07T00:25:55.256Z,5.43
2023-04-07T00:28:21.989Z,5.35
2023-04-07T00:30:50.418Z,5.34
2023-04-07T00:33:17.893Z,5.35
2023-04-07T00:35:45.433Z,5.35
2023-04-07T00:38:14.416Z,5.35
2023-04-07T00:40:41.262Z,5.35
2023-04-07T00:43:08.821Z,5.34
2023-04-07T00:45:36.824Z,5.32
2023-04-07T00:48:04.988Z,5.32
2023-04-07T00:50:32.900Z,5.32
2023-04-07T00:53:01.301Z,5.34
2023-04-07T00:55:28.213Z,5.31
2023-04-07T00:57:55.826Z,5.29
2023-04-07T01:00:24.359Z,5.25
2023-04-07T01:02:58.021Z,5.24
2023-04-07T01:08:39.372Z,5.26
2023-04-07T01:11:24.557Z,5.25
2023-04-07T01:13:55.745Z,5.22
2023-04-07T01:16:47.632Z,5.23
2023-04-07T01:19:18.391Z,5.23
2023-04-07T01:21:58.342Z,5.22
2023-04-07T01:24:48.484Z,5.18
2023-04-07T01:27:25.679Z,5.18
2023-04-07T01:29:54.419Z,5.18
2023-04-07T01:32:23.301Z,5.17
2023-04-07T01:34:52.423Z,5.19
2023-04-07T01:37:22.341Z,5.19
2023-04-07T01:39:49.219Z,5.20
2023-04-07T01:42:18.419Z,5.19
2023-04-07T01:44:46.637Z,5.21
2023-04-07T01:47:15.919Z,5.18
2023-04-07T01:49:43.974Z,5.15
2023-04-07T01:52:11.884Z,5.18
2023-04-07T01:54:39.765Z,5.17
2023-04-07T01:57:06.589Z,5.15
2023-04-07T01:59:35.375Z,5.13
2023-04-07T02:02:04.656Z,5.14
2023-04-07T02:04:37.920Z,5.14
2023-04-07T02:07:19.935Z,5.14
2023-04-07T02:09:51.752Z,5.14
2023-04-07T02:12:19.883Z,5.11
2023-04-07T02:15:01.452Z,5.09
2023-04-07T02:17:30.956Z,5.09
2023-04-07T02:20:01.249Z,5.09
2023-04-07T02:22:30.418Z,5.08
2023-04-07T02:24:57.792Z,5.10
2023-04-07T02:27:26.987Z,5.08
2023-04-07T02:29:54.198Z,5.07
2023-04-07T02:32:23.221Z,5.09
2023-04-07T02:34:51.041Z,5.08
2023-04-07T02:37:17.919Z,5.07
2023-04-07T02:39:44.729Z,5.06
2023-04-07T02:42:11.556Z,5.01
2023-04-07T02:44:38.826Z,5.03
2023-04-07T02:47:05.778Z,5.02
2023-04-07T02:49:32.597Z,4.99
2023-04-07T02:51:59.887Z,5.01
2023-04-07T02:54:26.818Z,5.01
2023-04-07T02:56:54.331Z,5.04
2023-04-07T02:59:22.438Z,5.02
2023-04-07T03:01:50.069Z,4.97
2023-04-07T03:04:18.877Z,5.00
2023-04-07T03:06:46.051Z,5.00
2023-04-07T03:09:15.427Z,4.99
2023-04-07T03:11:42.528Z,4.95
2023-04-07T03:14:09.958Z,4.94
2023-04-07T03:16:44.321Z,4.92
2023-04-07T03:19:14.381Z,4.90
2023-04-07T03:21:44.543Z,4.92
2023-04-07T03:24:11.948Z,4.92
2023-04-07T03:26:38.879Z,4.88
2023-04-07T03:29:12.344Z,4.85
2023-04-07T03:31:41.843Z,4.82
2023-04-07T03:34:08.856Z,4.79
2023-04-07T03:36:35.740Z,4.78
2023-04-07T03:39:05.882Z,4.73
2023-04-07T03:41:33.344Z,4.75
2023-04-07T03:44:00.311Z,4.74
2023-04-07T03:46:27.991Z,4.72
2023-04-07T03:48:56.527Z,4.68
2023-04-07T03:51:23.911Z,4.68
2023-04-07T03:53:55.316Z,4.68
2023-04-07T03:56:41.395Z,4.67
2023-04-07T03:59:09.975Z,4.61
2023-04-07T04:01:47.661Z,4.63
2023-04-07T04:04:16.634Z,4.63
2023-04-07T04:06:43.751Z,4.61
2023-04-07T04:09:23.745Z,4.58
2023-04-07T04:11:51.634Z,4.61
2023-04-07T04:14:19.192Z,4.62
2023-04-07T04:16:55.450Z,4.61
2023-04-07T04:19:27.688Z,4.59
2023-04-07T04:21:57.585Z,4.59
2023-04-07T04:24:26.118Z,4.56
2023-04-07T04:26:55.960Z,4.52
2023-04-07T04:29:22.984Z,4.55
2023-04-07T04:31:50.318Z,4.55
2023-04-07T04:34:19.181Z,4.59
2023-04-07T04:36:46.769Z,4.58
2023-04-07T04:39:16.860Z,4.60
2023-04-07T04:41:45.182Z,4.57
2023-04-07T04:44:12.680Z,4.61
2023-04-07T04:46:41.966Z,4.62
2023-04-07T04:49:11.431Z,4.63
2023-04-07T04:51:39.415Z,4.63
2023-04-07T04:54:15.472Z,4.63
2023-04-07T04:56:45.137Z,4.66
2023-04-07T04:59:13.391Z,4.65
2023-04-07T05:01:53.898Z,4.66
2023-04-07T05:04:21.826Z,4.67
2023-04-07T05:06:58.434Z,4.72
2023-04-07T05:09:28.328Z,4.72
2023-04-07T05:11:55.349Z,4.76
2023-04-07T05:14:23.647Z,4.79
2023-04-07T05:16:56.924Z,4.79
2023-04-07T05:19:28.411Z,4.78
2023-04-07T05:22:00.875Z,4.82
2023-04-07T05:24:29.560Z,4.84
2023-04-07T05:26:59.848Z,4.87
2023-04-07T05:29:27.463Z,4.91
2023-04-07T05:31:55.171Z,4.92
2023-04-07T05:34:23.810Z,4.92
2023-04-07T05:36:54.389Z,4.92
2023-04-07T05:39:22.030Z,4.94
2023-04-07T05:41:52.714Z,4.95
2023-04-07T05:44:25.466Z,4.91
2023-04-07T05:46:52.471Z,4.95
2023-04-07T05:49:21.887Z,4.96
2023-04-07T05:51:56.582Z,5.01
2023-04-07T05:54:24.673Z,5.04
2023-04-07T05:56:54.425Z,5.07
2023-04-07T05:59:22.541Z,5.10
2023-04-07T06:01:52.408Z,5.12
2023-04-07T06:04:20.113Z,5.14
2023-04-07T06:06:50.401Z,5.14
2023-04-07T06:09:18.726Z,5.17
2023-04-07T06:11:45.505Z,5.16
2023-04-07T06:14:12.623Z,5.18
2023-04-07T06:16:39.540Z,5.18
2023-04-07T06:19:07.469Z,5.21
2023-04-07T06:21:34.547Z,5.21
2023-04-07T06:24:05.424Z,5.24
2023-04-07T06:26:35.125Z,5.24
2023-04-07T06:29:04.040Z,5.28
2023-04-07T06:31:31.529Z,5.30
2023-04-07T06:33:58.915Z,5.32
2023-04-07T06:36:26.471Z,5.37
2023-04-07T06:38:53.414Z,5.35
2023-04-07T06:41:20.210Z,5.36
2023-04-07T06:43:49.768Z,5.37
2023-04-07T06:46:17.548Z,5.39
2023-04-07T06:48:45.449Z,5.38
2023-04-07T06:51:12.638Z,5.41
2023-04-07T06:53:39.916Z,5.44
2023-04-07T06:56:14.989Z,5.42
2023-04-07T06:58:41.899Z,5.45
2023-04-07T07:01:08.747Z,5.46
2023-04-07T07:04:01.792Z,5.47
2023-04-07T07:06:28.914Z,5.53
2023-04-07T07:08:56.019Z,5.55
2023-04-07T07:11:24.628Z,5.58
2023-04-07T07:13:51.923Z,5.64
2023-04-07T07:16:18.667Z,5.68
2023-04-07T07:19:11.473Z,5.69
2023-04-07T07:22:03.337Z,5.75
2023-04-07T07:24:56.534Z,5.79
2023-04-07T07:27:25.017Z,5.84
2023-04-07T07:29:52.502Z,5.87
2023-04-07T07:32:19.439Z,5.92
2023-04-07T07:34:46.267Z,5.98
2023-04-07T07:37:13.098Z,6.06
2023-04-07T07:39:41.368Z,6.10
2023-04-07T07:42:08.619Z,6.12
2023-04-07T07:44:38.897Z,6.17
2023-04-07T07:47:05.616Z,6.18
2023-04-07T07:49:34.619Z,6.21
2023-04-07T07:52:01.341Z,6.17
2023-04-07T07:54:29.476Z,6.16
2023-04-07T07:56:56.192Z,6.20
2023-04-07T07:59:26.955Z,6.21
2023-04-07T08:01:53.842Z,6.27
2023-04-07T08:04:20.698Z,6.33
2023-04-07T08:06:47.660Z,6.36
2023-04-07T08:09:15.668Z,6.37
2023-04-07T08:12:07.499Z,6.39
2023-04-07T08:14:35.447Z,6.43
2023-04-07T08:17:02.260Z,6.46
2023-04-07T08:19:29.918Z,6.52
2023-04-07T08:24:48.078Z,6.50
2023-04-07T08:27:14.862Z,6.54
2023-04-07T08:29:42.143Z,6.59
2023-04-07T08:32:13.013Z,6.62
2023-04-07T08:34:39.761Z,6.64
2023-04-07T08:37:06.869Z,6.72
2023-04-07T08:39:33.693Z,6.82
2023-04-07T08:42:01.368Z,6.86
2023-04-07T08:44:29.326Z,6.90
2023-04-07T08:46:57.901Z,6.96
2023-04-07T08:49:29.568Z,7.02
2023-04-07T08:52:00.159Z,7.03
2023-04-07T08:54:28.683Z,7.00
2023-04-07T08:56:56.634Z,7.00
2023-04-07T08:59:27.513Z,7.03
2023-04-07T09:01:55.220Z,7.11
2023-04-07T09:04:22.802Z,7.17
2023-04-07T09:06:53.459Z,7.19
2023-04-07T09:09:20.892Z,7.28
2023-04-07T09:11:49.127Z,7.36
2023-04-07T09:14:17.810Z,7.40
2023-04-07T09:16:45.442Z,7.46
2023-04-07T09:19:12.224Z,7.51
2023-04-07T09:21:52.003Z,7.59
2023-04-07T09:24:23.967Z,7.66
2023-04-07T09:26:51.197Z,7.69
2023-04-07T09:29:21.750Z,7.73
2023-04-07T09:31:50.877Z,7.75
2023-04-07T09:34:31.642Z,7.92
2023-04-07T09:36:59.275Z,8.01
2023-04-07T09:39:26.479Z,8.07
2023-04-07T09:41:54.600Z,8.05
2023-04-07T09:44:23.099Z,8.03
2023-04-07T09:46:52.748Z,7.98
2023-04-07T09:49:21.539Z,7.96
2023-04-07T09:51:58.930Z,7.95
2023-04-07T09:54:37.927Z,7.92
2023-04-07T09:57:07.285Z,7.91
2023-04-07T09:59:35.682Z,7.89
2023-04-07T10:02:04.651Z,7.93
2023-04-07T10:04:32.263Z,8.02
2023-04-07T10:07:03.640Z,8.09
2023-04-07T10:09:30.985Z,8.09
2023-04-07T10:11:59.349Z,8.03
2023-04-07T10:14:32.535Z,8.02
2023-04-07T10:17:01.260Z,8.00
2023-04-07T10:19:32.291Z,8.02
2023-04-07T10:22:01.381Z,8.05
2023-04-07T10:24:54.664Z,8.15
2023-04-07T10:27:29.788Z,8.22
2023-04-07T10:29:57.466Z,8.28
2023-04-07T10:32:24.282Z,8.28
2023-04-07T10:34:51.079Z,8.32
2023-04-07T10:37:21.473Z,8.29
2023-04-07T10:40:19.039Z,8.26
2023-04-07T10:42:48.612Z,8.24
2023-04-07T10:45:18.431Z,8.19
2023-04-07T10:48:03.973Z,8.19
2023-04-07T10:50:31.027Z,8.20
2023-04-07T10:53:08.193Z,8.28
2023-04-07T10:55:42.313Z,8.35
2023-04-07T10:58:19.135Z,8.42
2023-04-07T11:01:06.259Z,8.50
2023-04-07T11:03:38.060Z,8.56
2023-04-07T11:06:09.981Z,8.53
2023-04-07T11:08:49.206Z,8.53
2023-04-07T11:11:21.359Z,8.56
2023-04-07T11:13:51.860Z,8.57
2023-04-07T11:16:20.439Z,8.58
2023-04-07T11:18:48.128Z,8.55
2023-04-07T11:21:19.645Z,8.52
2023-04-07T11:23:47.885Z,8.46
2023-04-07T16:17:04.594Z,8.53
2023-04-07T16:19:32.418Z,8.50
2023-04-07T16:21:59.211Z,8.48
2023-04-07T16:24:26.061Z,8.46
2023-04-07T16:26:52.793Z,8.45
2023-04-07T16:29:20.308Z,8.53
2023-04-07T16:31:47.551Z,8.57
2023-04-07T16:34:14.892Z,8.54
2023-04-07T16:36:41.904Z,8.57
2023-04-07T16:39:09.288Z,8.52
2023-04-07T16:41:36.037Z,8.45
2023-04-07T16:44:02.909Z,8.44
2023-04-07T16:46:30.250Z,8.42
2023-04-07T16:49:02.551Z,8.47
2023-04-07T16:51:29.420Z,8.52
2023-04-07T16:53:56.228Z,8.54
2023-04-07T16:56:25.650Z,8.56
2023-04-07T16:58:52.424Z,8.52
2023-04-07T17:01:19.998Z,8.36
2023-04-07T17:03:47.948Z,8.28
2023-04-07T17:06:16.040Z,8.27
2023-04-07T17:08:42.788Z,8.38
2023-04-07T17:11:13.384Z,8.40
2023-04-07T17:13:40.390Z,8.32
2023-04-07T17:16:12.730Z,8.29
2023-04-07T17:18:40.549Z,8.21
2023-04-07T17:21:07.461Z,8.18
2023-04-07T17:23:38.191Z,8.27
2023-04-07T17:26:05.197Z,8.29
2023-04-07T17:28:32.161Z,8.24
2023-04-07T17:30:59.226Z,8.14
2023-04-07T17:33:28.507Z,8.09
2023-04-07T17:35:57.219Z,8.01
2023-04-07T17:38:24.767Z,7.96
2023-04-07T17:41:00.370Z,7.92
2023-04-07T17:43:29.614Z,7.97
2023-04-07T17:45:56.937Z,7.88
2023-04-07T17:48:24.160Z,7.90
2023-04-07T17:50:51.679Z,8.02
2023-04-07T17:53:20.092Z,7.96
2023-04-07T17:55:47.083Z,7.98
2023-04-07T17:58:14.572Z,8.01
2023-04-07T18:00:42.248Z,7.99
2023-04-07T18:03:10.812Z,7.96
2023-04-07T18:05:37.784Z,7.88
2023-04-07T18:08:06.863Z,7.86
2023-04-07T18:10:34.110Z,7.93
2023-04-07T18:13:00.982Z,7.89
2023-04-07T18:15:27.904Z,7.81
2023-04-07T18:17:54.735Z,7.65
2023-04-07T18:20:22.016Z,7.68
2023-04-07T18:22:51.627Z,7.72
2023-04-07T18:25:18.589Z,7.81
2023-04-07T18:27:45.541Z,7.86
2023-04-07T18:30:12.685Z,7.81
2023-04-07T18:32:39.475Z,7.76
2023-04-07T18:35:10.563Z,7.72
2023-04-07T18:37:39.396Z,7.63
2023-04-07T18:40:06.978Z,7.64
2023-04-07T18:42:34.080Z,7.66
2023-04-07T18:45:00.882Z,7.68
2023-04-07T18:47:29.075Z,7.82
2023-04-07T18:49:57.549Z,7.73
2023-04-07T18:52:26.097Z,7.74
2023-04-07T18:54:52.999Z,7.76
2023-04-07T18:57:19.953Z,7.84
2023-04-07T18:59:46.959Z,7.77
2023-04-07T19:02:14.616Z,7.70
2023-04-07T19:04:41.552Z,7.64
2023-04-07T19:07:08.246Z,7.68
2023-04-07T19:09:40.532Z,7.77
2023-04-07T19:12:08.309Z,7.68
2023-04-07T19:14:35.161Z,7.71
2023-04-07T19:17:03.421Z,7.67
2023-04-07T19:19:30.854Z,7.71
2023-04-07T19:21:57.682Z,7.69
2023-04-07T19:24:25.041Z,7.69
2023-04-07T19:26:54.009Z,7.79
2023-04-07T19:29:20.806Z,7.72
2023-04-07T19:31:48.702Z,7.64
2023-04-07T19:34:15.454Z,7.61
2023-04-07T19:36:42.414Z,7.58
2023-04-07T19:39:09.488Z,7.63
2023-04-07T19:41:36.395Z,7.59
2023-04-07T19:44:03.288Z,7.61
2023-04-07T19:46:32.554Z,7.61
2023-04-07T19:48:59.335Z,7.59
2023-04-07T19:51:26.206Z,7.58
2023-04-07T19:53:54.551Z,7.56
2023-04-07T19:56:25.066Z,7.49
2023-04-07T19:58:52.030Z,7.41
2023-04-07T20:01:19.502Z,7.39
2023-04-07T20:03:47.700Z,7.38
2023-04-07T20:06:16.171Z,7.40
2023-04-07T20:08:44.220Z,7.33
2023-04-07T20:11:12.561Z,7.26
2023-04-07T20:13:41.379Z,7.29
2023-04-07T20:16:08.917Z,7.34
2023-04-07T20:18:36.186Z,7.28
2023-04-07T20:21:04.228Z,7.21
2023-04-07T20:23:33.090Z,7.25
2023-04-07T20:26:00.512Z,7.26
2023-04-07T20:28:27.407Z,7.24
2023-04-07T20:30:54.189Z,7.20
2023-04-07T20:33:22.177Z,7.18
2023-04-07T20:35:48.977Z,7.21
2023-04-07T20:38:17.619Z,7.12
2023-04-07T20:40:44.360Z,7.11
2023-04-07T20:43:12.547Z,7.12
2023-04-07T20:45:41.059Z,7.11
2023-04-07T20:48:07.902Z,6.99
2023-04-07T20:50:36.991Z,7.01
2023-04-07T20:53:03.719Z,7.01
2023-04-07T20:55:30.580Z,7.00
2023-04-07T20:57:57.523Z,7.02
2023-04-07T21:00:24.981Z,7.03
2023-04-07T21:02:51.884Z,6.96
2023-04-07T21:05:20.157Z,6.86
2023-04-07T21:07:47.660Z,6.94
2023-04-07T21:10:14.430Z,6.89
2023-04-07T21:15:35.669Z,6.91
2023-04-07T21:18:02.475Z,6.89
2023-04-07T21:20:30.875Z,6.89
2023-04-07T21:22:58.605Z,6.88
2023-04-07T21:25:25.982Z,6.91
2023-04-07T21:27:52.731Z,6.93
2023-04-07T21:30:20.715Z,6.89
2023-04-07T21:32:47.570Z,6.87
2023-04-07T21:35:14.975Z,6.89
2023-04-07T21:37:41.783Z,6.88
2023-04-07T21:40:09.253Z,6.88
2023-04-07T21:42:36.024Z,6.85
2023-04-07T21:45:05.569Z,6.83
2023-04-07T21:47:32.355Z,6.82
2023-04-07T21:49:59.246Z,6.76
2023-04-07T21:52:27.668Z,6.74
2023-04-07T21:54:54.714Z,6.77
2023-04-07T21:57:21.576Z,6.71
2023-04-07T21:59:48.768Z,6.70
2023-04-07T22:02:15.531Z,6.63
2023-04-07T22:04:46.646Z,6.68
2023-04-07T22:07:13.436Z,6.60
2023-04-07T22:09:40.279Z,6.58
2023-04-07T22:12:07.088Z,6.56
2023-04-07T22:14:33.891Z,6.65
2023-04-07T22:17:00.711Z,6.68
2023-04-07T22:19:27.470Z,6.53
2023-04-07T22:21:54.234Z,6.54
2023-04-07T22:24:22.539Z,6.53
2023-04-07T22:26:49.281Z,6.54
2023-04-07T22:29:16.039Z,6.54
2023-04-07T22:31:43.002Z,6.51
2023-04-07T22:34:09.729Z,6.50
2023-04-07T22:36:37.990Z,6.52
2023-04-07T22:39:04.769Z,6.53
2023-04-07T22:41:31.864Z,6.51
2023-04-07T22:43:58.728Z,6.46
2023-04-07T22:46:25.591Z,6.38
2023-04-07T22:48:52.604Z,6.42
2023-04-07T22:51:19.517Z,6.39
2023-04-07T22:53:46.395Z,6.38
2023-04-07T22:56:13.101Z,6.41
2023-04-07T22:58:39.868Z,6.39
2023-04-07T23:01:06.655Z,6.42
2023-04-07T23:03:33.619Z,6.36
2023-04-07T23:06:00.529Z,6.32
2023-04-07T23:08:27.299Z,6.37
2023-04-07T23:10:54.061Z,6.39
2023-04-07T23:13:20.851Z,6.21
2023-04-07T23:15:47.683Z,6.22
2023-04-07T23:18:14.505Z,6.12
2023-04-07T23:20:42.230Z,6.13
2023-04-07T23:23:08.981Z,6.07
2023-04-07T23:25:35.769Z,6.14
2023-04-07T23:28:02.516Z,5.93
2023-04-07T23:30:29.315Z,5.86
2023-04-07T23:32:56.114Z,5.88
2023-04-07T23:35:23.739Z,5.72
2023-04-07T23:37:50.591Z,5.77
2023-04-07T23:40:17.557Z,5.68
2023-04-07T23:42:44.402Z,5.70
2023-04-07T23:45:11.390Z,5.69
2023-04-07T23:47:38.789Z,5.66
2023-04-07T23:50:06.116Z,5.64
2023-04-07T23:52:32.917Z,5.54
2023-04-07T23:55:00.276Z,5.58
2023-04-07T23:57:27.977Z,5.46
2023-04-07T23:59:54.824Z,5.47
